SBFN

Details ICAO SBFN (FEN)
Name Fernando De Noronha Airport
Region Brazil
Timezone America/Noronha (UTC-2.0)
Plans Departing 153
Arriving 210
Stats Elevation 190 ft / 58 m (AMSL)
Location -3.854450° -32.423100°
Runways 1
Magnetic Variation 19.981° W
Sunrise 2018-12-14 07:55:26 UTC / 2018-12-14 05:55:26 Local
Sunset 2018-12-14 20:15:57 UTC / 2018-12-14 18:15:57 Local
Advertisement - Login to hide

Runways

ID Width Length Bearing (true/mag) Surface Threshold Overrun Markings Lighting
12 148 ft / 45 m 6,059 ft / 1,847 m 94.43° / 114.41° ASPHALT 0 ft / 0 m 0 ft / 0 m APP CENTERLINE EDGE THRESHOLD REIL-OMNI
30 148 ft / 45 m 6,059 ft / 1,847 m 274.43° / 294.41° ASPHALT 0 ft / 0 m 0 ft / 0 m APP CENTERLINE EDGE THRESHOLD REIL-OMNI

Map

Weather


0- 5 10 15 20 25 30 35+ Temperature / °C

Clouds and Precipitation
Forecast for 2018-12-15 00:00 UTC. Updated 3 hours ago

Ground ~20,000 ft ~40,000 ft Winds

METAR

Not found

TAF

TAF SBFN 141600Z 1418/1506 14012KT 8000 SCT015 SCT040 TX29/1418Z TN26/1505Z RMK PEU

Frequencies

Tower 125.90 MHz Noronha Radio
Warning: Do not use this data for real-world aviation or navigation. No guarantee of current accuracy is given.